Time;durP1;ratioP1;P1;durP2;ratioP2;P2;SDS_P1;SDS_P2;PMS_P1;PMS_P2;Temp;Humidity;BMP_temperature;BMP_pressure;BME280_temperature;BME280_humidity;BME280_pressure;Samples;Min_cycle;Max_cycle;Signal;HPM_P1;HPM_P2
2022/12/12 00:03:25;;;;;;;43.45;18.00;;;;;;;0.23;100.00;100068.84;8358189;28;20028;-49
2022/12/12 00:07:25;;;;;;;43.58;17.15;;;;;;;0.24;100.00;100065.25;8353673;28;20037;-48
2022/12/12 00:11:26;;;;;;;46.03;19.50;;;;;;;0.23;100.00;100069.69;8340406;28;20115;-49
2022/12/12 00:15:27;;;;;;;39.15;16.55;;;;;;;0.23;100.00;100063.50;8355791;28;20204;-48
2022/12/12 00:19:27;;;;;;;38.08;17.17;;;;;;;0.21;100.00;100060.94;8357401;28;20037;-48
2022/12/12 00:23:28;;;;;;;44.00;17.08;;;;;;;0.23;100.00;100068.84;8357821;28;20036;-49
2022/12/12 00:27:53;;;;;;;42.88;17.38;;;;;;;0.23;100.00;100068.84;8357748;28;20037;-49
2022/12/12 00:31:53;;;;;;;42.80;17.73;;;;;;;0.21;100.00;100076.88;8357033;28;20700;-49
2022/12/12 00:35:54;;;;;;;40.38;17.35;;;;;;;0.17;100.00;100074.50;8356967;28;20443;-48
2022/12/12 00:39:55;;;;;;;45.13;18.63;;;;;;;0.19;100.00;100072.63;8354773;28;20042;-48
2022/12/12 00:43:55;;;;;;;37.28;16.35;;;;;;;0.29;100.00;100079.13;8357365;28;20645;-48
2022/12/12 00:47:55;;;;;;;38.50;16.52;;;;;;;0.20;100.00;100074.31;8356713;28;20040;-49
2022/12/12 00:51:56;;;;;;;39.72;18.08;;;;;;;0.19;100.00;100078.78;8356233;28;20167;-49
2022/12/12 00:55:57;;;;;;;42.30;18.63;;;;;;;0.26;100.00;100081.94;8356773;28;20128;-51
2022/12/12 00:59:58;;;;;;;42.38;17.95;;;;;;;0.24;100.00;100075.88;8383154;28;20049;-48
2022/12/12 01:04:00;;;;;;;41.30;17.27;;;;;;;0.27;100.00;100081.03;8359819;28;20099;-49
2022/12/12 01:08:01;;;;;;;39.83;17.23;;;;;;;0.26;100.00;100079.28;8354545;28;20441;-51
2022/12/12 01:12:01;;;;;;;42.55;17.63;;;;;;;0.27;100.00;100086.34;8353524;28;20120;-48
2022/12/12 01:16:03;;;;;;;42.50;16.13;;;;;;;0.32;100.00;100090.44;8355642;28;20044;-49
2022/12/12 01:20:15;;;;;;;40.05;16.23;;;;;;;0.30;100.00;100094.13;8354280;28;20053;-49
2022/12/12 01:24:16;;;;;;;36.95;15.23;;;;;;;0.31;100.00;100103.81;8353878;28;20422;-48
2022/12/12 01:28:16;;;;;;;38.50;15.65;;;;;;;0.34;100.00;100099.19;8355446;28;20056;-51
2022/12/12 01:32:17;;;;;;;36.97;15.57;;;;;;;0.35;100.00;100110.66;8355345;28;20041;-49
2022/12/12 01:36:21;;;;;;;33.30;14.70;;;;;;;0.36;100.00;100107.09;8355886;28;20191;-48
2022/12/12 01:40:24;;;;;;;34.10;14.23;;;;;;;0.36;100.00;100101.78;8354972;28;20090;-49
2022/12/12 01:44:43;;;;;;;35.73;14.83;;;;;;;0.36;100.00;100112.41;8355136;28;20041;-49
2022/12/12 01:48:50;;;;;;;36.15;14.68;;;;;;;0.33;100.00;100112.56;8354871;28;20041;-48
2022/12/12 01:52:50;;;;;;;29.73;13.48;;;;;;;0.33;100.00;100107.25;8354190;28;20040;-50
2022/12/12 01:56:53;;;;;;;34.58;14.38;;;;;;;0.32;100.00;100117.03;8354753;28;20076;-48
2022/12/12 02:00:54;;;;;;;36.05;14.38;;;;;;;0.32;100.00;100118.81;8386214;28;20515;-48
2022/12/12 02:04:58;;;;;;;34.63;13.23;;;;;;;0.26;100.00;100116.50;8354127;28;20044;-48
2022/12/12 02:09:01;;;;;;;;;;;;;;;0.27;100.00;100112.91;8353313;28;20093;-50
2022/12/12 02:13:06;;;;;;;33.55;13.63;;;;;;;0.25;100.00;100120.97;8353862;28;20392;-48
2022/12/12 02:17:47;;;;;;;33.30;12.18;;;;;;;0.22;100.00;100126.47;8353707;28;20057;-48
2022/12/12 02:21:57;;;;;;;28.67;12.15;;;;;;;0.17;100.00;100127.63;8353163;28;20497;-51
2022/12/12 02:26:37;;;;;;;38.97;13.73;;;;;;;0.13;100.00;100111.03;8350271;28;20079;-48
2022/12/12 02:30:59;;;;;;;35.80;13.20;;;;;;;0.09;100.00;100114.78;8353263;28;20028;-48
2022/12/12 02:35:28;;;;;;;30.30;12.75;;;;;;;0.06;100.00;100111.47;8354042;28;20124;-49
2022/12/12 02:40:00;;;;;;;28.80;12.05;;;;;;;-0.06;100.00;100113.81;8353053;28;20140;-49
2022/12/12 02:44:24;;;;;;;35.42;13.25;;;;;;;-0.11;100.00;100112.38;8353573;28;20037;-48
2022/12/12 02:48:34;;;;;;;33.28;12.18;;;;;;;-0.16;100.00;100120.59;8353324;28;20032;-48
2022/12/12 02:52:35;;;;;;;33.05;12.95;;;;;;;-0.23;100.00;100113.03;8348074;28;20396;-49
2022/12/12 02:57:00;;;;;;;30.92;12.57;;;;;;;-0.35;100.00;100119.88;8352945;28;20280;-48
2022/12/12 03:01:21;;;;;;;32.58;12.90;;;;;;;-0.48;100.00;100113.53;8355216;28;20045;-48
2022/12/12 03:10:12;;;;;;;32.50;13.55;;;;;;;-0.69;100.00;100127.91;8345401;28;20044;-48
2022/12/12 03:14:23;;;;;;;31.85;12.85;;;;;;;-0.75;100.00;100125.59;8352413;28;20065;-49
2022/12/12 03:18:31;;;;;;;30.48;12.10;;;;;;;-0.83;100.00;100121.59;8352197;28;20040;-48
2022/12/12 03:22:43;;;;;;;30.55;12.00;;;;;;;-0.84;100.00;100118.09;8359573;28;20041;-48
2022/12/12 03:26:51;;;;;;;26.90;11.70;;;;;;;-0.89;100.00;100121.91;8348521;28;20051;-48
2022/12/12 03:30:56;;;;;;;29.13;10.98;;;;;;;-0.99;100.00;100110.94;8349079;28;20079;-49
2022/12/12 03:35:06;;;;;;;28.67;10.45;;;;;;;-1.12;100.00;100112.50;8316440;28;20047;-48
2022/12/12 03:39:12;;;;;;;32.63;11.88;;;;;;;-1.15;100.00;100115.31;8317001;28;20052;-50
2022/12/12 03:43:18;;;;;;;32.58;11.55;;;;;;;-1.17;100.00;100114.50;8333753;28;20071;-49
2022/12/12 03:47:26;;;;;;;31.25;11.32;;;;;;;-1.22;100.00;100113.88;8351252;28;20044;-54
2022/12/12 03:51:29;;;;;;;27.95;11.80;;;;;;;-1.27;100.00;100121.22;8351080;28;20400;-54
2022/12/12 03:55:50;;;;;;;28.63;12.25;;;;;;;-1.33;100.00;100126.84;8351737;28;20056;-51
2022/12/12 03:59:59;;;;;;;30.80;11.85;;;;;;;-1.44;100.00;100137.09;8351474;28;20052;-52
2022/12/12 04:04:15;;;;;;;29.20;12.05;;;;;;;-1.56;100.00;100145.63;8351411;28;20037;-51
2022/12/12 04:08:16;;;;;;;30.48;12.27;;;;;;;-1.60;100.00;100138.78;8351677;28;20041;-51
2022/12/12 04:13:22;;;;;;;34.95;11.27;;;;;;;-1.55;100.00;100142.06;8351463;28;20056;-50
2022/12/12 04:16:45;;;;;;;30.50;11.38;;;;;;;-1.55;100.00;100142.06;8331361;28;20529;-55
2022/12/12 04:25:18;;;;;;;31.20;12.93;;;;;;;-1.81;100.00;100149.53;8351761;28;20402;-51
2022/12/12 04:29:44;;;;;;;32.45;12.00;;;;;;;-1.84;100.00;100150.53;8347456;28;20090;-51
2022/12/12 04:33:48;;;;;;;27.08;10.75;;;;;;;-1.87;100.00;100149.84;8380112;28;20062;-54
2022/12/12 04:37:53;;;;;;;28.30;10.60;;;;;;;-1.92;100.00;100150.06;8380869;28;20082;-52
2022/12/12 04:41:56;;;;;;;32.13;11.85;;;;;;;-1.96;100.00;100156.41;8379740;28;20041;-53
2022/12/12 04:46:03;;;;;;;32.53;11.73;;;;;;;-2.00;100.00;100160.16;8338923;28;20045;-52
2022/12/12 04:50:07;;;;;;;31.88;13.00;;;;;;;-2.00;100.00;100160.16;8332467;28;20419;-54
2022/12/12 04:54:16;;;;;;;30.67;12.18;;;;;;;-2.02;100.00;100154.06;8314020;28;20041;-55
2022/12/12 04:58:17;;;;;;;28.83;12.43;;;;;;;-2.05;100.00;100151.53;8326262;28;20315;-54
2022/12/12 05:02:29;;;;;;;28.48;11.25;;;;;;;-2.03;100.00;100160.28;8325839;28;20530;-53
2022/12/12 05:06:38;;;;;;;30.75;13.10;;;;;;;-1.98;100.00;100156.50;8341307;28;20142;-55
2022/12/12 05:10:44;;;;;;;36.22;12.52;;;;;;;-1.88;100.00;100161.34;8341197;28;20472;-54
2022/12/12 05:14:47;;;;;;;30.05;11.43;;;;;;;-1.78;100.00;100168.78;8343315;28;20034;-53
2022/12/12 05:18:48;;;;;;;40.45;13.00;;;;;;;-1.70;100.00;100163.13;8343405;28;20052;-52
2022/12/12 05:22:48;;;;;;;35.53;13.10;;;;;;;-1.61;100.00;100163.56;8342997;28;20802;-54
2022/12/12 05:26:49;;;;;;;28.17;11.23;;;;;;;-1.54;100.00;100167.63;8374616;28;20067;-52
2022/12/12 05:30:49;;;;;;;31.10;11.35;;;;;;;-1.53;100.00;100160.56;8337677;28;20033;-52
2022/12/12 05:34:50;;;;;;;34.15;12.30;;;;;;;-1.50;100.00;100171.84;8319141;28;20038;-52
2022/12/12 05:38:50;;;;;;;28.05;11.27;;;;;;;-1.45;100.00;100172.50;8322915;28;20415;-52
2022/12/12 05:42:51;;;;;;;33.35;10.43;;;;;;;-1.40;100.00;100177.56;8323680;28;20044;-55
2022/12/12 05:46:51;;;;;;;26.02;11.38;;;;;;;-1.43;100.00;100181.25;8317137;28;20057;-56
2022/12/12 05:50:52;;;;;;;28.38;11.27;;;;;;;-1.40;100.00;100178.41;8317933;28;20496;-52
2022/12/12 05:54:53;;;;;;;27.88;11.40;;;;;;;-1.37;100.00;100183.56;8323944;28;20033;-52
2022/12/12 05:58:53;;;;;;;25.70;11.20;;;;;;;-1.40;100.00;100183.72;8325841;28;20044;-52
2022/12/12 06:02:54;;;;;;;32.78;10.70;;;;;;;-1.39;100.00;100180.16;8325264;28;20125;-53
2022/12/12 06:06:55;;;;;;;26.98;11.40;;;;;;;-1.39;100.00;100182.81;8323336;28;20053;-56
2022/12/12 06:10:55;;;;;;;25.25;11.05;;;;;;;-1.35;100.00;100186.13;8322843;28;20033;-52
2022/12/12 06:14:56;;;;;;;23.27;9.25;;;;;;;-1.37;100.00;100193.31;8322470;28;20499;-54
2022/12/12 06:18:56;;;;;;;28.27;10.15;;;;;;;-1.36;100.00;100201.19;8315085;28;20056;-55
2022/12/12 06:22:57;;;;;;;21.70;9.75;;;;;;;-1.37;100.00;100193.31;8316731;28;20042;-53
2022/12/12 06:26:58;;;;;;;29.75;11.10;;;;;;;-1.40;100.00;100189.00;8324157;28;20522;-52
2022/12/12 06:30:58;;;;;;;24.63;9.63;;;;;;;-1.38;100.00;100191.59;8343364;28;20431;-54
2022/12/12 06:34:59;;;;;;;26.60;10.23;;;;;;;-1.38;100.00;100196.88;8329686;28;20109;-55
2022/12/12 06:39:00;;;;;;;26.23;10.57;;;;;;;-1.37;100.00;100194.16;8332495;28;20040;-55
2022/12/12 06:43:01;;;;;;;25.67;10.30;;;;;;;-1.43;100.00;100198.91;8325938;28;20040;-54
2022/12/12 06:47:01;;;;;;;29.65;10.75;;;;;;;-1.45;100.00;100212.25;8340966;28;20171;-55
2022/12/12 06:51:07;;;;;;;23.25;10.65;;;;;;;-1.45;100.00;100209.59;8338035;28;20308;-56
2022/12/12 06:55:08;;;;;;;23.58;9.75;;;;;;;-1.42;100.00;100222.69;8348993;28;20025;-52
2022/12/12 06:59:10;;;;;;;28.30;10.30;;;;;;;-1.36;100.00;100222.41;8343728;28;20048;-56
2022/12/12 07:03:12;;;;;;;27.77;10.10;;;;;;;-1.37;100.00;100220.66;8342948;28;20539;-52
2022/12/12 07:07:12;;;;;;;28.95;9.45;;;;;;;-1.38;100.00;100218.09;8341357;28;20037;-56
2022/12/12 07:11:16;;;;;;;22.52;10.18;;;;;;;-1.41;100.00;100228.88;8344927;28;20171;-53
2022/12/12 07:15:17;;;;;;;27.10;10.73;;;;;;;-1.43;100.00;100221.00;8352558;28;20124;-54
2022/12/12 07:19:17;;;;;;;23.45;8.95;;;;;;;-1.43;100.00;100226.31;8350140;28;20048;-55
2022/12/12 07:23:18;;;;;;;20.38;8.73;;;;;;;-1.54;100.00;100227.72;8340081;28;20737;-53
2022/12/12 07:27:19;;;;;;;22.83;10.13;;;;;;;-1.56;100.00;100230.44;8348561;28;20048;-53
2022/12/12 07:31:23;;;;;;;21.70;10.38;;;;;;;-1.57;100.00;100234.03;8353593;28;20140;-52
2022/12/12 07:35:24;;;;;;;31.42;11.30;;;;;;;-1.62;100.00;100240.47;8348015;28;20037;-56
2022/12/12 07:39:25;;;;;;;45.75;18.15;;;;;;;-1.66;100.00;100249.47;8345251;28;20045;-54
2022/12/12 07:43:25;;;;;;;24.08;10.02;;;;;;;-1.70;100.00;100247.91;8342038;28;20072;-56
2022/12/12 07:47:25;;;;;;;30.23;10.90;;;;;;;-1.80;100.00;100258.06;8344240;28;20044;-56
2022/12/12 07:51:26;;;;;;;23.48;9.57;;;;;;;-1.79;100.00;100257.16;8340078;28;20036;-56
2022/12/12 07:55:27;;;;;;;20.98;10.18;;;;;;;-1.77;100.00;100257.09;8352029;28;20172;-56
2022/12/12 07:59:27;;;;;;;26.67;10.38;;;;;;;-1.67;100.00;100253.94;8349142;28;20044;-54
2022/12/12 08:03:28;;;;;;;21.75;9.43;;;;;;;-1.58;100.00;100248.22;8346058;28;20590;-56
2022/12/12 08:07:28;;;;;;;28.70;11.38;;;;;;;-1.49;99.51;100250.44;8334729;28;20091;-56
2022/12/12 08:11:29;;;;;;;29.80;10.98;;;;;;;-1.44;99.05;100253.72;8353260;28;20064;-53
2022/12/12 08:15:29;;;;;;;31.88;12.50;;;;;;;-1.45;98.74;100253.78;8344746;28;20044;-57
2022/12/12 08:19:31;;;;;;;37.95;12.55;;;;;;;-1.38;98.16;100261.38;8350790;28;20048;-57
2022/12/12 08:23:31;;;;;;;31.25;11.57;;;;;;;-1.35;98.06;100261.22;8348637;28;20040;-56
2022/12/12 08:27:32;;;;;;;33.15;12.98;;;;;;;-1.26;98.51;100260.78;8346745;28;20056;-56
2022/12/12 08:31:33;;;;;;;30.88;12.40;;;;;;;-1.03;97.55;100263.22;8340214;28;20064;-55
2022/12/12 08:35:33;;;;;;;25.90;12.43;;;;;;;-0.20;93.97;100267.78;8350668;28;20211;-55
2022/12/12 08:39:34;;;;;;;23.20;9.75;;;;;;;0.26;90.48;100268.00;8349288;28;20764;-53
2022/12/12 08:43:36;;;;;;;27.00;10.52;;;;;;;0.23;89.44;100276.13;8351539;28;20055;-53
2022/12/12 08:47:36;;;;;;;22.80;10.05;;;;;;;0.54;85.97;100281.50;8347148;28;20111;-56
2022/12/12 08:51:38;;;;;;;24.38;9.50;;;;;;;0.34;86.78;100279.09;8352142;28;20545;-52
2022/12/12 08:55:39;;;;;;;27.17;10.13;;;;;;;1.59;82.91;100280.75;8351786;28;20040;-52
2022/12/12 08:59:41;;;;;;;27.15;9.38;;;;;;;2.56;78.63;100281.81;8351897;28;20047;-56
2022/12/12 09:03:42;;;;;;;24.52;9.77;;;;;;;3.36;75.14;100266.75;8349805;28;20037;-53
2022/12/12 09:07:43;;;;;;;25.65;9.85;;;;;;;3.61;72.39;100290.91;8344919;28;20047;-53
2022/12/12 09:11:43;;;;;;;20.50;9.27;;;;;;;3.83;71.11;100288.50;8358055;28;20145;-52
2022/12/12 09:15:43;;;;;;;18.02;8.60;;;;;;;3.66;70.75;100288.75;8357587;28;20115;-51
2022/12/12 09:19:44;;;;;;;18.65;8.38;;;;;;;4.08;70.20;100290.34;8357140;28;20045;-54
2022/12/12 09:23:45;;;;;;;20.77;9.43;;;;;;;4.34;69.04;100280.50;8339092;28;20152;-52
2022/12/12 09:27:45;;;;;;;16.50;7.97;;;;;;;5.35;66.01;100287.38;8350000;28;20037;-53
2022/12/12 09:31:46;;;;;;;22.35;9.52;;;;;;;4.89;65.83;100289.00;8354540;28;20044;-53
2022/12/12 09:35:46;;;;;;;17.67;8.15;;;;;;;4.63;67.97;100292.72;8354633;28;20411;-51
2022/12/12 09:39:47;;;;;;;19.23;9.55;;;;;;;5.59;65.11;100290.91;8354633;28;20383;-50
2022/12/12 09:43:55;;;;;;;15.55;7.30;;;;;;;6.35;62.07;100286.78;8357097;28;20045;-54
2022/12/12 09:48:01;;;;;;;16.80;7.68;;;;;;;6.04;63.06;100295.50;8356493;28;20029;-50
2022/12/12 09:52:02;;;;;;;15.38;7.15;;;;;;;6.61;61.69;100296.31;8355163;28;20227;-50
2022/12/12 09:56:30;;;;;;;16.00;7.00;;;;;;;7.43;59.42;100294.06;8350423;28;20036;-51
2022/12/12 10:00:35;;;;;;;17.10;7.40;;;;;;;6.55;60.02;100299.50;8351435;28;20091;-51
2022/12/12 10:05:00;;;;;;;17.40;7.75;;;;;;;7.03;59.71;100295.59;8345653;28;20125;-53
2022/12/12 10:09:40;;;;;;;16.13;7.25;;;;;;;7.42;57.67;100281.59;8349991;28;20045;-53
2022/12/12 10:13:41;;;;;;;13.52;7.57;;;;;;;7.56;59.91;100281.28;8341888;28;20460;-50
2022/12/12 10:17:44;;;;;;;16.48;7.57;;;;;;;7.21;60.10;100283.34;8356447;28;20072;-51
2022/12/12 10:21:46;;;;;;;15.75;6.88;;;;;;;6.94;59.22;100288.28;8355817;28;20036;-50
2022/12/12 10:26:09;;;;;;;16.55;8.52;;;;;;;6.77;62.13;100296.81;8337961;28;20037;-50
2022/12/12 10:30:16;;;;;;;15.73;7.73;;;;;;;7.61;60.09;100288.97;8352705;28;20479;-51
2022/12/12 10:34:34;;;;;;;16.83;7.82;;;;;;;7.33;59.29;100281.50;8346747;28;20038;-52
2022/12/12 10:39:05;;;;;;;17.77;8.23;;;;;;;6.33;62.95;100277.13;8322723;28;20055;-52
2022/12/12 10:47:26;;;;;;;19.00;8.98;;;;;;;5.15;66.37;100274.56;8400381;27;20386;-51
2022/12/12 10:51:29;;;;;;;21.00;8.35;;;;;;;4.98;67.15;100273.16;8391681;27;20047;-54
2022/12/12 10:55:52;;;;;;;16.23;7.30;;;;;;;5.62;66.74;100279.94;8410997;27;20032;-52
2022/12/12 10:59:55;;;;;;;20.40;8.10;;;;;;;5.67;64.91;100275.06;8390835;28;20510;-52
2022/12/12 11:03:58;;;;;;;16.48;7.60;;;;;;;5.48;64.97;100272.06;8380340;27;20036;-54
2022/12/12 11:08:03;;;;;;;17.05;8.93;;;;;;;5.35;65.72;100269.47;8414131;27;20034;-51
2022/12/12 11:16:27;;;;;;;17.63;8.10;;;;;;;4.95;69.19;100267.13;8409053;27;20380;-55
2022/12/12 11:20:27;;;;;;;18.85;8.32;;;;;;;5.36;67.39;100272.97;8351265;27;20033;-52
2022/12/12 11:24:31;;;;;;;23.60;9.18;;;;;;;5.68;65.80;100264.22;8386376;27;20032;-55
2022/12/12 11:28:36;;;;;;;21.77;9.52;;;;;;;5.87;65.27;100253.00;8379151;27;20033;-53
2022/12/12 11:32:40;;;;;;;17.40;7.57;;;;;;;5.80;64.93;100257.09;8370835;27;20060;-52
2022/12/12 11:36:41;;;;;;;26.67;11.20;;;;;;;6.03;64.45;100251.72;8378763;27;20057;-56
2022/12/12 11:40:43;;;;;;;18.10;8.60;;;;;;;5.72;64.98;100248.78;8357581;27;20143;-56
2022/12/12 11:44:44;;;;;;;14.90;7.50;;;;;;;5.48;66.17;100256.84;8346487;28;20574;-53
2022/12/12 11:53:00;;;;;;;21.02;8.25;;;;;;;4.21;71.32;100236.84;8458772;27;20122;-51
2022/12/12 12:02:15;;;;;;;20.23;8.82;;;;;;;3.17;77.03;100234.22;8315935;28;20374;-52
2022/12/12 12:06:44;;;;;;;24.25;9.60;;;;;;;3.13;77.40;100227.38;8333783;28;20053;-51
2022/12/12 12:11:00;;;;;;;20.85;8.70;;;;;;;3.54;75.78;100220.09;8342572;28;20124;-54
2022/12/12 12:15:17;;;;;;;22.13;10.48;;;;;;;3.21;76.15;100226.84;8347454;28;20407;-54
2022/12/12 12:19:44;;;;;;;20.40;8.57;;;;;;;3.04;75.95;100219.97;8316307;28;20034;-52
2022/12/12 12:24:01;;;;;;;18.58;8.38;;;;;;;3.04;77.83;100209.28;8344209;28;20105;-54
2022/12/12 12:28:24;;;;;;;17.48;8.68;;;;;;;3.27;77.70;100216.59;8348400;28;20558;-52
2022/12/12 12:32:37;;;;;;;19.17;7.72;;;;;;;3.20;78.11;100212.63;8344766;28;20080;-55
2022/12/12 12:37:05;;;;;;;19.38;8.32;;;;;;;3.00;78.02;100213.13;8321307;28;20034;-54
2022/12/12 12:45:55;;;;;;;22.58;11.15;;;;;;;3.23;79.03;100201.75;8349568;27;20388;-54
2022/12/12 12:50:12;;;;;;;21.85;9.68;;;;;;;3.28;77.79;100196.97;8316406;28;20501;-53
2022/12/12 12:54:22;;;;;;;19.33;7.55;;;;;;;3.40;76.66;100189.94;8326927;28;20038;-51
2022/12/12 12:58:28;;;;;;;17.50;8.50;;;;;;;3.33;77.64;100191.31;8333855;28;20047;-54
2022/12/12 13:06:55;;;;;;;21.98;9.48;;;;;;;3.17;78.82;100194.16;8403543;27;21011;-53
2022/12/12 13:11:04;;;;;;;22.95;9.82;;;;;;;3.26;77.80;100188.19;8392372;28;20419;-51
2022/12/12 13:15:26;;;;;;;20.38;8.55;;;;;;;3.29;79.44;100193.31;8362811;28;20766;-51
2022/12/12 13:19:34;;;;;;;19.08;8.63;;;;;;;3.16;78.33;100197.78;8386150;28;20037;-51
2022/12/12 13:23:52;;;;;;;21.38;9.40;;;;;;;3.20;79.44;100191.28;8396794;28;20502;-54
2022/12/12 13:27:55;;;;;;;21.55;9.07;;;;;;;3.24;79.42;100195.47;8378746;28;20068;-53
2022/12/12 13:32:20;;;;;;;19.02;8.30;;;;;;;3.24;78.99;100182.13;8380826;28;20033;-54
2022/12/12 13:36:26;;;;;;;19.33;8.20;;;;;;;3.12;78.79;100182.06;8370837;28;20037;-54
2022/12/12 13:40:32;;;;;;;18.63;8.25;;;;;;;2.93;79.57;100190.44;8381741;28;20037;-51
2022/12/12 13:44:39;;;;;;;18.65;8.40;;;;;;;3.03;78.66;100196.03;8375095;28;20131;-53
2022/12/12 13:48:44;;;;;;;19.40;7.95;;;;;;;2.98;78.71;100193.66;8381971;28;20037;-53
2022/12/12 13:53:04;;;;;;;21.95;9.85;;;;;;;3.00;78.78;100186.41;8381567;28;20041;-53
2022/12/12 13:57:11;;;;;;;19.65;8.57;;;;;;;3.02;78.65;100181.81;8380129;28;20120;-51
2022/12/12 14:01:37;;;;;;;21.65;9.73;;;;;;;2.96;79.66;100179.53;8364853;28;20101;-55
2022/12/12 14:05:45;;;;;;;22.33;9.48;;;;;;;2.90;79.83;100169.28;8332610;28;20052;-54
2022/12/12 14:09:52;;;;;;;23.00;9.52;;;;;;;3.00;80.02;100177.53;8315745;28;20042;-51
2022/12/12 14:14:04;;;;;;;19.00;9.07;;;;;;;3.00;79.88;100181.06;8336714;28;20126;-52
2022/12/12 14:18:04;;;;;;;22.85;8.45;;;;;;;3.28;79.21;100169.41;8317777;28;20208;-54
2022/12/12 14:22:05;;;;;;;20.17;9.00;;;;;;;3.07;79.86;100171.69;8319952;28;20047;-53
2022/12/12 14:30:45;;;;;;;17.80;7.72;;;;;;;3.12;79.06;100179.41;8403153;27;20799;-52
2022/12/12 14:35:15;;;;;;;26.55;9.77;;;;;;;3.00;78.53;100191.75;8399366;27;20040;-54
2022/12/12 14:39:46;;;;;;;20.52;9.18;;;;;;;3.06;78.82;100196.69;8398945;27;20074;-53
2022/12/12 14:43:54;;;;;;;21.73;9.40;;;;;;;3.00;79.19;100186.41;8390181;27;20128;-52
2022/12/12 14:48:16;;;;;;;22.83;10.10;;;;;;;2.85;79.98;100195.44;8355806;27;20048;-54
2022/12/12 14:52:21;;;;;;;19.13;9.52;;;;;;;2.72;80.46;100197.19;8354714;28;20075;-52
2022/12/12 14:56:42;;;;;;;24.95;10.10;;;;;;;2.66;81.01;100194.91;8345414;28;20044;-53
2022/12/12 15:00:53;;;;;;;29.60;10.05;;;;;;;2.56;82.06;100195.59;8395544;28;20084;-53
2022/12/12 15:04:57;;;;;;;34.22;12.73;;;;;;;2.41;82.78;100192.09;8366249;28;20040;-52
2022/12/12 15:09:20;;;;;;;37.63;12.25;;;;;;;2.31;83.39;100203.47;8391696;28;20070;-52
2022/12/12 15:13:21;;;;;;;31.70;13.27;;;;;;;2.19;85.33;100213.06;8381161;28;20102;-52
2022/12/12 15:17:37;;;;;;;34.10;13.35;;;;;;;2.10;86.07;100208.28;8373954;28;20129;-52
2022/12/12 15:21:38;;;;;;;37.97;15.50;;;;;;;2.02;86.13;100216.78;8410348;28;20036;-55
2022/12/12 15:25:51;;;;;;;35.55;15.00;;;;;;;2.12;84.40;100217.06;8381036;28;20037;-53
2022/12/12 15:29:52;;;;;;;41.28;13.63;;;;;;;2.00;85.62;100213.38;8380236;28;20166;-55
2022/12/12 15:33:53;;;;;;;28.52;12.68;;;;;;;1.92;86.38;100214.75;8376191;28;20431;-54
2022/12/12 15:37:59;;;;;;;30.35;12.27;;;;;;;1.74;86.92;100223.91;8376388;28;20754;-56
2022/12/12 15:41:59;;;;;;;48.20;20.98;;;;;;;1.65;88.03;100227.94;8358856;28;20107;-55
2022/12/12 15:46:12;;;;;;;38.22;14.30;;;;;;;1.69;87.86;100229.50;8361020;28;20041;-54
2022/12/12 15:50:18;;;;;;;26.92;12.00;;;;;;;1.67;88.89;100227.88;8356291;28;20044;-53
2022/12/12 15:54:19;;;;;;;28.90;12.73;;;;;;;1.45;89.12;100216.78;8353793;28;20438;-53
2022/12/12 15:58:23;;;;;;;29.70;12.57;;;;;;;1.27;89.07;100212.53;8340646;28;20045;-52
2022/12/12 16:02:25;;;;;;;;;;;;;;;1.18;91.30;100226.38;8356265;28;20033;-53
2022/12/12 16:10:59;;;;;;;28.00;12.27;;;;;;;0.75;93.13;100228.00;8413848;27;21095;-51
2022/12/12 16:15:17;;;;;;;27.88;12.00;;;;;;;0.61;95.83;100240.34;8380619;28;20048;-50
2022/12/12 16:19:32;;;;;;;34.28;13.20;;;;;;;0.41;97.74;100238.78;8360267;28;20122;-52
2022/12/12 16:23:40;;;;;;;35.55;14.70;;;;;;;0.36;98.66;100242.66;8371958;28;20041;-51
2022/12/12 16:27:40;;;;;;;33.97;14.30;;;;;;;0.49;99.74;100241.03;8372046;28;20045;-52
2022/12/12 16:31:43;;;;;;;40.72;16.05;;;;;;;0.57;97.64;100236.13;8379261;28;20044;-51
2022/12/12 16:35:43;;;;;;;37.72;15.35;;;;;;;0.46;98.09;100235.88;8377216;28;20052;-51
2022/12/12 16:39:44;;;;;;;38.92;14.48;;;;;;;0.38;97.95;100238.09;8373971;28;20423;-54
2022/12/12 16:43:45;;;;;;;39.17;15.35;;;;;;;0.30;98.96;100240.31;8366812;28;20249;-53
2022/12/12 16:47:45;;;;;;;37.22;14.85;;;;;;;0.33;98.64;100240.16;8378916;28;20308;-53
2022/12/12 16:51:46;;;;;;;32.53;12.65;;;;;;;-0.24;99.37;100229.03;8379496;28;20409;-50
2022/12/12 16:55:49;;;;;;;37.15;14.80;;;;;;;0.12;100.00;100234.19;8359184;28;20674;-53
2022/12/12 16:59:50;;;;;;;37.15;15.10;;;;;;;0.13;100.00;100221.75;8361819;28;20053;-53
2022/12/12 17:03:50;;;;;;;37.20;14.98;;;;;;;0.04;100.00;100234.59;8364338;28;20106;-53
2022/12/12 17:07:52;;;;;;;37.13;14.50;;;;;;;0.09;100.00;100230.84;8377489;28;20525;-52
2022/12/12 17:11:52;;;;;;;46.72;17.38;;;;;;;0.18;100.00;100239.16;8356594;28;20055;-52
2022/12/12 17:15:54;;;;;;;45.80;18.10;;;;;;;0.17;100.00;100239.25;8374409;28;20056;-53
2022/12/12 17:19:54;;;;;;;43.17;16.35;;;;;;;0.10;100.00;100235.22;8354587;28;20112;-54
2022/12/12 17:23:55;;;;;;;43.47;17.35;;;;;;;0.04;100.00;100231.94;8319783;28;20072;-54
2022/12/12 17:27:55;;;;;;;38.70;16.98;;;;;;;0.04;100.00;100237.25;8308043;28;20427;-50
2022/12/12 17:31:56;;;;;;;42.40;16.92;;;;;;;-0.02;100.00;100242.91;8317347;28;20232;-50
2022/12/12 17:35:59;;;;;;;41.92;17.80;;;;;;;-0.06;100.00;100236.03;8319372;28;20111;-54
2022/12/12 17:40:01;;;;;;;40.35;15.80;;;;;;;-0.10;100.00;100236.28;8322019;28;20065;-50
2022/12/12 17:44:02;;;;;;;39.13;17.27;;;;;;;-0.10;100.00;100234.50;8323194;28;20555;-53
2022/12/12 17:48:03;;;;;;;44.65;16.63;;;;;;;-0.05;100.00;100234.25;8307119;28;20088;-51
2022/12/12 17:52:04;;;;;;;42.75;17.60;;;;;;;-0.10;100.00;100242.44;8313761;28;20111;-55
2022/12/12 17:56:08;;;;;;;43.00;17.55;;;;;;;-0.15;100.00;100244.47;8321640;28;20037;-50
2022/12/12 18:00:10;;;;;;;48.92;20.45;;;;;;;-0.16;100.00;100248.09;8315353;28;20495;-52
2022/12/12 18:04:14;;;;;;;77.30;30.25;;;;;;;-0.08;100.00;100245.03;8318010;28;20042;-53
2022/12/12 18:08:14;;;;;;;65.50;27.25;;;;;;;-0.14;100.00;100245.34;8317172;28;20046;-52
2022/12/12 18:12:16;;;;;;;48.85;20.63;;;;;;;-0.28;100.00;100248.72;8317960;28;20053;-51
2022/12/12 18:16:17;;;;;;;50.53;19.27;;;;;;;-0.37;100.00;100233.28;8322331;28;20037;-52
2022/12/12 18:20:18;;;;;;;49.20;20.08;;;;;;;-0.43;100.00;100233.59;8317134;28;20040;-51
2022/12/12 18:24:21;;;;;;;59.08;22.55;;;;;;;-0.52;100.00;100228.75;8318524;28;20079;-51
2022/12/12 18:28:22;;;;;;;57.80;24.10;;;;;;;-0.56;100.00;100227.19;8318688;28;20034;-50
2022/12/12 18:32:22;;;;;;;60.20;25.77;;;;;;;-0.47;100.00;100225.84;8313009;28;20042;-51
2022/12/12 18:36:26;;;;;;;81.85;35.67;;;;;;;-0.41;100.00;100221.09;8321290;28;20124;-50
2022/12/12 18:40:28;;;;;;;79.78;33.55;;;;;;;-0.30;100.00;100218.72;8304763;28;20408;-54
2022/12/12 18:44:28;;;;;;;72.88;29.35;;;;;;;-0.21;100.00;100226.22;8306931;28;20684;-50
2022/12/12 18:48:29;;;;;;;64.43;27.33;;;;;;;-0.30;100.00;100229.34;8311802;28;20043;-50
2022/12/12 18:52:32;;;;;;;51.58;23.65;;;;;;;-0.47;100.00;100232.03;8295295;28;20038;-51
2022/12/12 18:56:34;;;;;;;48.97;21.95;;;;;;;-0.64;100.00;100229.38;8288617;28;20042;-51
2022/12/12 19:00:36;;;;;;;71.93;27.23;;;;;;;-0.74;100.00;100249.34;8316316;28;20455;-53
2022/12/12 19:04:37;;;;;;;71.57;28.23;;;;;;;-0.74;100.00;100238.75;8318524;28;20038;-51
2022/12/12 19:08:39;;;;;;;76.70;32.65;;;;;;;-0.66;100.00;100241.88;8317870;28;20056;-52
2022/12/12 19:12:39;;;;;;;70.75;25.90;;;;;;;-0.72;100.00;100236.88;8314603;28;20085;-50
2022/12/12 19:16:41;;;;;;;66.15;27.25;;;;;;;-0.75;100.00;100237.03;8316426;28;20037;-50
2022/12/12 19:20:42;;;;;;;63.17;28.90;;;;;;;-0.80;100.00;100244.34;8318954;28;20090;-53
2022/12/12 19:24:43;;;;;;;59.50;27.10;;;;;;;-0.80;100.00;100236.41;8318282;28;20037;-55
2022/12/12 19:28:45;;;;;;;70.95;28.27;;;;;;;-0.79;100.00;100232.78;8317137;28;20034;-52